sensor_id;sensor_type;location;lat;lon;timestamp;pressure;altitude;pressure_sealevel;temperature;humidity
58223;BME280;44020;50.890;15.796;2023-03-13T00:01:29;96928.40;;;5.48;77.25
58223;BME280;44020;50.890;15.796;2023-03-13T00:03:57;96926.81;;;5.50;77.27
58223;BME280;44020;50.890;15.796;2023-03-13T00:06:26;96927.08;;;5.51;77.23
58223;BME280;44020;50.890;15.796;2023-03-13T00:08:54;96927.48;;;5.53;77.31
58223;BME280;44020;50.890;15.796;2023-03-13T00:11:22;96929.13;;;5.55;77.38
58223;BME280;44020;50.890;15.796;2023-03-13T00:13:56;96932.33;;;5.57;77.38
58223;BME280;44020;50.890;15.796;2023-03-13T00:16:24;96932.83;;;5.60;77.78
58223;BME280;44020;50.890;15.796;2023-03-13T00:18:53;96933.10;;;5.62;77.73
58223;BME280;44020;50.890;15.796;2023-03-13T00:21:23;96932.98;;;5.64;77.87
58223;BME280;44020;50.890;15.796;2023-03-13T00:23:50;96924.60;;;5.66;78.07
58223;BME280;44020;50.890;15.796;2023-03-13T00:26:21;96929.94;;;5.68;77.88
58223;BME280;44020;50.890;15.796;2023-03-13T00:28:48;96923.33;;;5.69;77.94
58223;BME280;44020;50.890;15.796;2023-03-13T00:31:19;96925.49;;;5.71;78.10
58223;BME280;44020;50.890;15.796;2023-03-13T00:33:49;96924.14;;;5.73;77.94
58223;BME280;44020;50.890;15.796;2023-03-13T00:36:21;96927.76;;;5.74;78.37
58223;BME280;44020;50.890;15.796;2023-03-13T00:38:50;96925.66;;;5.77;78.41
58223;BME280;44020;50.890;15.796;2023-03-13T00:41:26;96921.00;;;5.78;78.18
58223;BME280;44020;50.890;15.796;2023-03-13T00:43:54;96917.19;;;5.80;78.02
58223;BME280;44020;50.890;15.796;2023-03-13T00:46:23;96910.48;;;5.82;78.78
58223;BME280;44020;50.890;15.796;2023-03-13T00:48:51;96908.11;;;5.84;78.30
58223;BME280;44020;50.890;15.796;2023-03-13T00:51:20;96906.39;;;5.86;78.17
58223;BME280;44020;50.890;15.796;2023-03-13T00:53:47;96905.96;;;5.87;78.21
58223;BME280;44020;50.890;15.796;2023-03-13T00:56:16;96905.98;;;5.90;78.51
58223;BME280;44020;50.890;15.796;2023-03-13T00:58:45;96904.86;;;5.91;78.38
58223;BME280;44020;50.890;15.796;2023-03-13T01:03:49;96905.06;;;5.93;78.44
58223;BME280;44020;50.890;15.796;2023-03-13T01:06:17;96905.18;;;5.94;78.66
58223;BME280;44020;50.890;15.796;2023-03-13T01:08:45;96906.74;;;5.94;78.42
58223;BME280;44020;50.890;15.796;2023-03-13T01:11:18;96908.66;;;5.95;78.39
58223;BME280;44020;50.890;15.796;2023-03-13T01:13:47;96911.40;;;5.96;78.52
58223;BME280;44020;50.890;15.796;2023-03-13T01:16:19;96910.39;;;5.98;78.54
58223;BME280;44020;50.890;15.796;2023-03-13T01:18:50;96913.84;;;5.99;78.65
58223;BME280;44020;50.890;15.796;2023-03-13T01:21:19;96912.17;;;6.00;78.53
58223;BME280;44020;50.890;15.796;2023-03-13T01:23:48;96913.13;;;6.02;78.89
58223;BME280;44020;50.890;15.796;2023-03-13T01:26:16;96914.48;;;6.03;79.12
58223;BME280;44020;50.890;15.796;2023-03-13T01:28:44;96925.45;;;6.05;78.97
58223;BME280;44020;50.890;15.796;2023-03-13T01:31:14;96921.09;;;6.07;78.85
58223;BME280;44020;50.890;15.796;2023-03-13T01:33:42;96922.60;;;6.09;79.43
58223;BME280;44020;50.890;15.796;2023-03-13T01:36:09;96917.45;;;6.09;79.22
58223;BME280;44020;50.890;15.796;2023-03-13T01:38:37;96914.71;;;6.11;79.37
58223;BME280;44020;50.890;15.796;2023-03-13T01:41:06;96916.54;;;6.12;79.00
58223;BME280;44020;50.890;15.796;2023-03-13T01:43:35;96919.13;;;6.13;79.46
58223;BME280;44020;50.890;15.796;2023-03-13T01:46:14;96916.38;;;6.15;79.13
58223;BME280;44020;50.890;15.796;2023-03-13T01:48:54;96919.77;;;6.17;79.39
58223;BME280;44020;50.890;15.796;2023-03-13T01:51:46;96924.11;;;6.18;79.26
58223;BME280;44020;50.890;15.796;2023-03-13T01:56:59;96915.58;;;6.22;79.13
58223;BME280;44020;50.890;15.796;2023-03-13T01:59:32;96910.71;;;6.23;79.23
58223;BME280;44020;50.890;15.796;2023-03-13T02:02:01;96908.19;;;6.24;79.28
58223;BME280;44020;50.890;15.796;2023-03-13T02:04:42;96908.14;;;6.25;79.02
58223;BME280;44020;50.890;15.796;2023-03-13T02:07:14;96910.09;;;6.27;79.04
58223;BME280;44020;50.890;15.796;2023-03-13T02:09:45;96910.33;;;6.29;79.27
58223;BME280;44020;50.890;15.796;2023-03-13T02:12:30;96911.15;;;6.30;79.32
58223;BME280;44020;50.890;15.796;2023-03-13T02:14:59;96911.39;;;6.31;79.23
58223;BME280;44020;50.890;15.796;2023-03-13T02:17:28;96910.45;;;6.33;79.02
58223;BME280;44020;50.890;15.796;2023-03-13T02:19:56;96911.79;;;6.34;78.79
58223;BME280;44020;50.890;15.796;2023-03-13T02:22:30;96910.96;;;6.35;78.99
58223;BME280;44020;50.890;15.796;2023-03-13T02:27:54;96908.50;;;6.38;79.00
58223;BME280;44020;50.890;15.796;2023-03-13T02:30:23;96905.04;;;6.39;78.89
58223;BME280;44020;50.890;15.796;2023-03-13T02:32:51;96901.88;;;6.39;79.09
58223;BME280;44020;50.890;15.796;2023-03-13T02:35:20;96900.77;;;6.40;79.28
58223;BME280;44020;50.890;15.796;2023-03-13T02:37:50;96895.02;;;6.42;78.99
58223;BME280;44020;50.890;15.796;2023-03-13T02:40:23;96900.25;;;6.43;79.02
58223;BME280;44020;50.890;15.796;2023-03-13T02:42:53;96895.95;;;6.43;78.68
58223;BME280;44020;50.890;15.796;2023-03-13T02:45:22;96891.18;;;6.44;79.14
58223;BME280;44020;50.890;15.796;2023-03-13T02:47:49;96890.58;;;6.45;79.36
58223;BME280;44020;50.890;15.796;2023-03-13T02:50:18;96889.29;;;6.45;79.24
58223;BME280;44020;50.890;15.796;2023-03-13T02:52:54;96890.10;;;6.47;79.06
58223;BME280;44020;50.890;15.796;2023-03-13T02:55:36;96888.08;;;6.49;79.17
58223;BME280;44020;50.890;15.796;2023-03-13T02:58:07;96884.02;;;6.49;79.10
58223;BME280;44020;50.890;15.796;2023-03-13T03:00:34;96883.61;;;6.49;78.93
58223;BME280;44020;50.890;15.796;2023-03-13T03:03:01;96880.05;;;6.50;78.82
58223;BME280;44020;50.890;15.796;2023-03-13T03:05:29;96880.47;;;6.51;79.07
58223;BME280;44020;50.890;15.796;2023-03-13T03:07:56;96879.67;;;6.52;78.93
58223;BME280;44020;50.890;15.796;2023-03-13T03:10:23;96878.05;;;6.53;79.06
58223;BME280;44020;50.890;15.796;2023-03-13T03:12:50;96876.39;;;6.54;78.92
58223;BME280;44020;50.890;15.796;2023-03-13T03:15:18;96875.80;;;6.55;79.15
58223;BME280;44020;50.890;15.796;2023-03-13T03:17:45;96871.36;;;6.55;78.99
58223;BME280;44020;50.890;15.796;2023-03-13T03:20:12;96868.99;;;6.56;78.67
58223;BME280;44020;50.890;15.796;2023-03-13T03:22:39;96866.52;;;6.56;78.71
58223;BME280;44020;50.890;15.796;2023-03-13T03:25:09;96864.52;;;6.57;78.73
58223;BME280;44020;50.890;15.796;2023-03-13T03:27:36;96867.63;;;6.58;78.90
58223;BME280;44020;50.890;15.796;2023-03-13T03:30:04;96869.68;;;6.59;78.94
58223;BME280;44020;50.890;15.796;2023-03-13T03:32:32;96864.70;;;6.60;78.62
58223;BME280;44020;50.890;15.796;2023-03-13T03:34:59;96861.89;;;6.59;79.00
58223;BME280;44020;50.890;15.796;2023-03-13T03:37:26;96856.52;;;6.61;78.85
58223;BME280;44020;50.890;15.796;2023-03-13T03:39:53;96853.63;;;6.61;78.76
58223;BME280;44020;50.890;15.796;2023-03-13T03:42:20;96851.88;;;6.61;78.88
58223;BME280;44020;50.890;15.796;2023-03-13T03:44:48;96855.34;;;6.62;78.46
58223;BME280;44020;50.890;15.796;2023-03-13T03:47:15;96853.34;;;6.63;78.65
58223;BME280;44020;50.890;15.796;2023-03-13T03:49:42;96851.38;;;6.63;78.79
58223;BME280;44020;50.890;15.796;2023-03-13T03:52:09;96851.77;;;6.63;78.95
58223;BME280;44020;50.890;15.796;2023-03-13T03:54:36;96844.19;;;6.63;78.53
58223;BME280;44020;50.890;15.796;2023-03-13T03:57:03;96838.51;;;6.63;78.55
58223;BME280;44020;50.890;15.796;2023-03-13T03:59:31;96835.38;;;6.63;78.56
58223;BME280;44020;50.890;15.796;2023-03-13T04:01:58;96829.97;;;6.61;78.56
58223;BME280;44020;50.890;15.796;2023-03-13T04:04:25;96833.27;;;6.60;78.64
58223;BME280;44020;50.890;15.796;2023-03-13T04:06:52;96834.30;;;6.58;78.56
58223;BME280;44020;50.890;15.796;2023-03-13T04:09:19;96829.15;;;6.56;78.41
58223;BME280;44020;50.890;15.796;2023-03-13T04:11:47;96823.79;;;6.54;78.27
58223;BME280;44020;50.890;15.796;2023-03-13T04:14:14;96824.96;;;6.53;78.38
58223;BME280;44020;50.890;15.796;2023-03-13T04:16:41;96824.53;;;6.51;78.24
58223;BME280;44020;50.890;15.796;2023-03-13T04:19:09;96819.36;;;6.49;78.42
58223;BME280;44020;50.890;15.796;2023-03-13T04:21:36;96816.31;;;6.47;78.24
58223;BME280;44020;50.890;15.796;2023-03-13T04:24:04;96823.04;;;6.44;78.22
58223;BME280;44020;50.890;15.796;2023-03-13T04:26:31;96826.95;;;6.41;78.03
58223;BME280;44020;50.890;15.796;2023-03-13T04:28:58;96822.44;;;6.38;77.82
58223;BME280;44020;50.890;15.796;2023-03-13T04:31:25;96812.75;;;6.35;77.82
58223;BME280;44020;50.890;15.796;2023-03-13T04:33:53;96810.77;;;6.30;78.22
58223;BME280;44020;50.890;15.796;2023-03-13T04:36:20;96803.05;;;6.24;77.83
58223;BME280;44020;50.890;15.796;2023-03-13T04:38:47;96797.74;;;6.19;78.20
58223;BME280;44020;50.890;15.796;2023-03-13T04:41:14;96795.45;;;6.14;78.20
58223;BME280;44020;50.890;15.796;2023-03-13T04:43:41;96790.80;;;6.10;78.02
58223;BME280;44020;50.890;15.796;2023-03-13T04:46:08;96792.05;;;6.07;78.30
58223;BME280;44020;50.890;15.796;2023-03-13T04:48:35;96790.86;;;6.07;78.04
58223;BME280;44020;50.890;15.796;2023-03-13T04:51:03;96788.81;;;6.05;78.29
58223;BME280;44020;50.890;15.796;2023-03-13T04:53:30;96779.50;;;6.04;78.40
58223;BME280;44020;50.890;15.796;2023-03-13T04:55:57;96778.05;;;6.02;78.30
58223;BME280;44020;50.890;15.796;2023-03-13T04:58:25;96776.99;;;6.00;78.05
58223;BME280;44020;50.890;15.796;2023-03-13T05:00:52;96773.47;;;5.97;78.59
58223;BME280;44020;50.890;15.796;2023-03-13T05:03:21;96773.77;;;5.95;78.33
58223;BME280;44020;50.890;15.796;2023-03-13T05:05:48;96763.65;;;5.93;78.30
58223;BME280;44020;50.890;15.796;2023-03-13T05:08:15;96759.57;;;5.91;78.14
58223;BME280;44020;50.890;15.796;2023-03-13T05:10:42;96749.75;;;5.88;78.32
58223;BME280;44020;50.890;15.796;2023-03-13T05:13:10;96751.12;;;5.83;78.20
58223;BME280;44020;50.890;15.796;2023-03-13T05:15:37;96749.59;;;5.82;78.75
58223;BME280;44020;50.890;15.796;2023-03-13T05:18:04;96747.86;;;5.82;78.58
58223;BME280;44020;50.890;15.796;2023-03-13T05:20:31;96746.48;;;5.81;78.39
58223;BME280;44020;50.890;15.796;2023-03-13T05:22:58;96739.42;;;5.81;78.61
58223;BME280;44020;50.890;15.796;2023-03-13T05:25:26;96733.31;;;5.78;78.47
58223;BME280;44020;50.890;15.796;2023-03-13T05:27:53;96725.50;;;5.76;78.28
58223;BME280;44020;50.890;15.796;2023-03-13T05:30:20;96722.23;;;5.72;78.82
58223;BME280;44020;50.890;15.796;2023-03-13T05:32:48;96724.14;;;5.70;78.72
58223;BME280;44020;50.890;15.796;2023-03-13T05:35:15;96727.50;;;5.67;78.40
58223;BME280;44020;50.890;15.796;2023-03-13T05:37:42;96715.29;;;5.65;78.66
58223;BME280;44020;50.890;15.796;2023-03-13T05:40:12;96713.08;;;5.63;78.40
58223;BME280;44020;50.890;15.796;2023-03-13T05:42:40;96702.01;;;5.63;78.88
58223;BME280;44020;50.890;15.796;2023-03-13T05:45:08;96695.26;;;5.64;78.74
58223;BME280;44020;50.890;15.796;2023-03-13T05:47:36;96692.86;;;5.63;78.41
58223;BME280;44020;50.890;15.796;2023-03-13T05:50:05;96699.27;;;5.62;78.89
58223;BME280;44020;50.890;15.796;2023-03-13T05:52:33;96701.14;;;5.60;78.66
58223;BME280;44020;50.890;15.796;2023-03-13T05:55:00;96700.11;;;5.60;78.65
58223;BME280;44020;50.890;15.796;2023-03-13T05:57:28;96702.71;;;5.60;78.73
58223;BME280;44020;50.890;15.796;2023-03-13T05:59:55;96703.81;;;5.60;78.90
58223;BME280;44020;50.890;15.796;2023-03-13T06:02:22;96703.52;;;5.59;79.00
58223;BME280;44020;50.890;15.796;2023-03-13T06:04:50;96704.07;;;5.61;79.01
58223;BME280;44020;50.890;15.796;2023-03-13T06:07:17;96710.52;;;5.62;79.30
58223;BME280;44020;50.890;15.796;2023-03-13T06:09:44;96706.13;;;5.65;78.98
58223;BME280;44020;50.890;15.796;2023-03-13T06:12:12;96703.94;;;5.69;79.44
58223;BME280;44020;50.890;15.796;2023-03-13T06:14:39;96701.38;;;5.78;79.86
58223;BME280;44020;50.890;15.796;2023-03-13T06:17:06;96700.39;;;5.87;79.78
58223;BME280;44020;50.890;15.796;2023-03-13T06:19:33;96700.34;;;5.97;80.10
58223;BME280;44020;50.890;15.796;2023-03-13T06:22:00;96704.48;;;6.06;80.06
58223;BME280;44020;50.890;15.796;2023-03-13T06:24:28;96714.45;;;6.15;79.96
58223;BME280;44020;50.890;15.796;2023-03-13T06:26:55;96714.11;;;6.22;80.10
58223;BME280;44020;50.890;15.796;2023-03-13T06:29:22;96706.20;;;6.30;80.22
58223;BME280;44020;50.890;15.796;2023-03-13T06:31:50;96702.67;;;6.37;80.13
58223;BME280;44020;50.890;15.796;2023-03-13T06:34:17;96696.84;;;6.45;79.98
58223;BME280;44020;50.890;15.796;2023-03-13T06:36:44;96700.56;;;6.52;80.25
58223;BME280;44020;50.890;15.796;2023-03-13T06:39:12;96691.84;;;6.59;80.09
58223;BME280;44020;50.890;15.796;2023-03-13T06:41:39;96682.02;;;6.65;79.75
58223;BME280;44020;50.890;15.796;2023-03-13T06:44:06;96670.65;;;6.71;80.16
58223;BME280;44020;50.890;15.796;2023-03-13T06:46:33;96664.26;;;6.76;79.97
58223;BME280;44020;50.890;15.796;2023-03-13T06:49:00;96649.36;;;6.82;80.10
58223;BME280;44020;50.890;15.796;2023-03-13T06:51:30;96631.44;;;6.88;79.96
58223;BME280;44020;50.890;15.796;2023-03-13T06:53:57;96614.28;;;6.96;80.14
58223;BME280;44020;50.890;15.796;2023-03-13T06:56:24;96619.72;;;7.04;80.13
58223;BME280;44020;50.890;15.796;2023-03-13T06:58:52;96617.70;;;7.12;80.19
58223;BME280;44020;50.890;15.796;2023-03-13T07:01:19;96614.81;;;7.20;80.15
58223;BME280;44020;50.890;15.796;2023-03-13T07:03:47;96617.98;;;7.27;80.00
58223;BME280;44020;50.890;15.796;2023-03-13T07:06:15;96623.06;;;7.33;80.11
58223;BME280;44020;50.890;15.796;2023-03-13T07:08:44;96625.63;;;7.39;80.19
58223;BME280;44020;50.890;15.796;2023-03-13T07:11:12;96629.74;;;7.45;79.96
58223;BME280;44020;50.890;15.796;2023-03-13T07:13:40;96621.30;;;7.51;79.84
58223;BME280;44020;50.890;15.796;2023-03-13T07:16:09;96634.16;;;7.57;79.68
58223;BME280;44020;50.890;15.796;2023-03-13T07:18:38;96623.31;;;7.62;79.63
58223;BME280;44020;50.890;15.796;2023-03-13T07:21:08;96621.52;;;7.67;79.54
58223;BME280;44020;50.890;15.796;2023-03-13T07:23:36;96618.20;;;7.71;79.18
58223;BME280;44020;50.890;15.796;2023-03-13T07:26:06;96612.11;;;7.75;79.01
58223;BME280;44020;50.890;15.796;2023-03-13T07:28:34;96591.88;;;7.78;78.91
58223;BME280;44020;50.890;15.796;2023-03-13T07:31:07;96571.98;;;7.82;78.92
58223;BME280;44020;50.890;15.796;2023-03-13T07:33:35;96573.98;;;7.85;78.56
58223;BME280;44020;50.890;15.796;2023-03-13T07:36:02;96593.92;;;7.93;78.39
58223;BME280;44020;50.890;15.796;2023-03-13T07:38:30;96598.30;;;7.98;78.16
58223;BME280;44020;50.890;15.796;2023-03-13T07:40:58;96604.67;;;8.02;78.05
58223;BME280;44020;50.890;15.796;2023-03-13T07:43:26;96613.02;;;8.06;77.89
58223;BME280;44020;50.890;15.796;2023-03-13T07:45:58;96613.70;;;8.11;77.95
58223;BME280;44020;50.890;15.796;2023-03-13T07:48:34;96614.38;;;8.17;77.55
58223;BME280;44020;50.890;15.796;2023-03-13T07:51:03;96612.09;;;8.21;77.32
58223;BME280;44020;50.890;15.796;2023-03-13T07:53:31;96605.30;;;8.24;77.22
58223;BME280;44020;50.890;15.796;2023-03-13T07:56:04;96605.58;;;8.27;76.89
58223;BME280;44020;50.890;15.796;2023-03-13T07:58:36;96622.47;;;8.31;76.84
58223;BME280;44020;50.890;15.796;2023-03-13T08:01:08;96619.11;;;8.35;76.44
58223;BME280;44020;50.890;15.796;2023-03-13T08:03:36;96621.55;;;8.38;76.49
58223;BME280;44020;50.890;15.796;2023-03-13T08:06:07;96607.28;;;8.40;76.13
58223;BME280;44020;50.890;15.796;2023-03-13T08:08:35;96604.02;;;8.40;76.17
58223;BME280;44020;50.890;15.796;2023-03-13T08:11:07;96593.64;;;8.42;76.18
58223;BME280;44020;50.890;15.796;2023-03-13T08:13:35;96584.98;;;8.44;76.26
58223;BME280;44020;50.890;15.796;2023-03-13T08:16:10;96581.16;;;8.47;76.23
58223;BME280;44020;50.890;15.796;2023-03-13T08:18:40;96572.84;;;8.52;76.04
58223;BME280;44020;50.890;15.796;2023-03-13T08:21:19;96560.11;;;8.56;76.02
58223;BME280;44020;50.890;15.796;2023-03-13T08:23:47;96559.57;;;8.61;76.07
58223;BME280;44020;50.890;15.796;2023-03-13T08:26:16;96564.71;;;8.67;75.94
58223;BME280;44020;50.890;15.796;2023-03-13T08:28:46;96571.83;;;8.73;75.49
58223;BME280;44020;50.890;15.796;2023-03-13T08:33:42;96554.70;;;8.86;74.65
58223;BME280;44020;50.890;15.796;2023-03-13T08:38:45;96521.98;;;8.96;74.46
58223;BME280;44020;50.890;15.796;2023-03-13T08:41:16;96504.63;;;9.03;74.53
58223;BME280;44020;50.890;15.796;2023-03-13T08:43:44;96504.60;;;9.09;74.34
58223;BME280;44020;50.890;15.796;2023-03-13T08:46:13;96498.50;;;9.16;74.01
58223;BME280;44020;50.890;15.796;2023-03-13T08:48:40;96494.00;;;9.21;73.90
58223;BME280;44020;50.890;15.796;2023-03-13T08:51:10;96491.52;;;9.26;73.97
58223;BME280;44020;50.890;15.796;2023-03-13T08:53:40;96486.29;;;9.31;74.11
58223;BME280;44020;50.890;15.796;2023-03-13T08:56:10;96466.45;;;9.37;74.11
58223;BME280;44020;50.890;15.796;2023-03-13T08:58:38;96480.06;;;9.44;73.78
58223;BME280;44020;50.890;15.796;2023-03-13T09:01:12;96477.49;;;9.49;73.57
58223;BME280;44020;50.890;15.796;2023-03-13T09:03:39;96471.06;;;9.56;73.57
58223;BME280;44020;50.890;15.796;2023-03-13T09:06:07;96470.23;;;9.61;73.05
58223;BME280;44020;50.890;15.796;2023-03-13T09:08:36;96457.23;;;9.66;72.91
58223;BME280;44020;50.890;15.796;2023-03-13T09:11:09;96455.20;;;9.71;72.70
58223;BME280;44020;50.890;15.796;2023-03-13T09:13:40;96439.94;;;9.75;72.46
58223;BME280;44020;50.890;15.796;2023-03-13T09:16:10;96449.28;;;9.80;72.26
58223;BME280;44020;50.890;15.796;2023-03-13T09:18:38;96441.76;;;9.83;72.04
58223;BME280;44020;50.890;15.796;2023-03-13T09:21:08;96443.19;;;9.87;72.03
58223;BME280;44020;50.890;15.796;2023-03-13T09:23:37;96434.73;;;9.90;71.85
58223;BME280;44020;50.890;15.796;2023-03-13T09:26:05;96432.69;;;9.91;71.63
58223;BME280;44020;50.890;15.796;2023-03-13T09:28:32;96434.39;;;9.92;71.53
58223;BME280;44020;50.890;15.796;2023-03-13T09:31:14;96426.27;;;9.91;71.10
58223;BME280;44020;50.890;15.796;2023-03-13T09:33:43;96418.16;;;9.93;71.48
58223;BME280;44020;50.890;15.796;2023-03-13T09:36:11;96412.05;;;9.94;71.51
58223;BME280;44020;50.890;15.796;2023-03-13T09:38:39;96415.20;;;9.94;71.39
58223;BME280;44020;50.890;15.796;2023-03-13T09:44:13;96412.48;;;9.97;71.59
58223;BME280;44020;50.890;15.796;2023-03-13T09:54:38;96421.94;;;9.96;71.44
58223;BME280;44020;50.890;15.796;2023-03-13T10:02:43;96416.85;;;9.94;71.67
58223;BME280;44020;50.890;15.796;2023-03-13T10:05:21;96416.98;;;9.92;72.03
58223;BME280;44020;50.890;15.796;2023-03-13T10:07:49;96417.82;;;9.90;71.96
58223;BME280;44020;50.890;15.796;2023-03-13T10:13:18;96413.97;;;9.90;71.95
58223;BME280;44020;50.890;15.796;2023-03-13T10:15:51;96417.61;;;9.89;71.79
58223;BME280;44020;50.890;15.796;2023-03-13T10:18:23;96425.33;;;9.88;71.81
58223;BME280;44020;50.890;15.796;2023-03-13T10:21:03;96420.19;;;9.88;71.83
58223;BME280;44020;50.890;15.796;2023-03-13T10:23:59;96425.84;;;9.86;71.24
58223;BME280;44020;50.890;15.796;2023-03-13T10:26:32;96410.57;;;9.80;71.29
58223;BME280;44020;50.890;15.796;2023-03-13T10:29:26;96400.16;;;9.79;71.39
58223;BME280;44020;50.890;15.796;2023-03-13T10:32:02;96404.09;;;9.81;71.64
58223;BME280;44020;50.890;15.796;2023-03-13T10:34:56;96401.67;;;9.83;71.61
58223;BME280;44020;50.890;15.796;2023-03-13T10:37:41;96412.60;;;9.86;71.41
58223;BME280;44020;50.890;15.796;2023-03-13T10:40:23;96420.70;;;9.88;71.29
58223;BME280;44020;50.890;15.796;2023-03-13T10:42:58;96437.41;;;9.92;70.96
58223;BME280;44020;50.890;15.796;2023-03-13T10:45:32;96445.51;;;9.94;71.16
58223;BME280;44020;50.890;15.796;2023-03-13T10:48:03;96442.87;;;9.96;71.31
58223;BME280;44020;50.890;15.796;2023-03-13T10:50:34;96449.20;;;9.99;71.07
58223;BME280;44020;50.890;15.796;2023-03-13T10:55:47;96438.02;;;10.03;70.54
58223;BME280;44020;50.890;15.796;2023-03-13T10:58:40;96428.92;;;10.01;70.88
58223;BME280;44020;50.890;15.796;2023-03-13T11:01:15;96430.75;;;10.03;71.13
58223;BME280;44020;50.890;15.796;2023-03-13T11:03:43;96416.34;;;10.05;71.17
58223;BME280;44020;50.890;15.796;2023-03-13T11:09:03;96417.91;;;10.12;71.52
58223;BME280;44020;50.890;15.796;2023-03-13T11:11:43;96412.30;;;10.15;71.89
58223;BME280;44020;50.890;15.796;2023-03-13T11:14:16;96412.09;;;10.15;71.51
58223;BME280;44020;50.890;15.796;2023-03-13T11:16:53;96413.90;;;10.15;71.80
58223;BME280;44020;50.890;15.796;2023-03-13T11:22:13;96405.73;;;10.13;72.02
58223;BME280;44020;50.890;15.796;2023-03-13T11:28:24;96397.54;;;10.09;72.64
58223;BME280;44020;50.890;15.796;2023-03-13T11:36:59;96360.02;;;10.07;73.56
58223;BME280;44020;50.890;15.796;2023-03-13T11:39:42;96347.71;;;10.09;73.70
58223;BME280;44020;50.890;15.796;2023-03-13T11:42:38;96354.61;;;10.13;73.98
58223;BME280;44020;50.890;15.796;2023-03-13T11:50:57;96361.88;;;10.19;73.59
58223;BME280;44020;50.890;15.796;2023-03-13T12:01:56;96323.88;;;10.23;73.83
58223;BME280;44020;50.890;15.796;2023-03-13T12:04:51;96319.54;;;10.26;73.85
58223;BME280;44020;50.890;15.796;2023-03-13T12:07:31;96319.90;;;10.32;74.22
58223;BME280;44020;50.890;15.796;2023-03-13T12:10:26;96317.75;;;10.40;74.08
58223;BME280;44020;50.890;15.796;2023-03-13T12:13:11;96310.75;;;10.51;74.21
58223;BME280;44020;50.890;15.796;2023-03-13T12:15:45;96308.84;;;10.60;74.23
58223;BME280;44020;50.890;15.796;2023-03-13T12:18:30;96321.08;;;10.68;73.97
58223;BME280;44020;50.890;15.796;2023-03-13T12:21:39;96322.39;;;10.75;73.82
58223;BME280;44020;50.890;15.796;2023-03-13T12:26:51;96316.48;;;10.92;73.81
58223;BME280;44020;50.890;15.796;2023-03-13T12:29:36;96309.77;;;10.99;73.84
58223;BME280;44020;50.890;15.796;2023-03-13T12:32:17;96312.55;;;11.06;73.45
58223;BME280;44020;50.890;15.796;2023-03-13T12:35:19;96327.73;;;11.12;73.79
58223;BME280;44020;50.890;15.796;2023-03-13T12:43:31;96326.56;;;11.32;73.05
58223;BME280;44020;50.890;15.796;2023-03-13T12:46:03;96323.27;;;11.37;73.20
58223;BME280;44020;50.890;15.796;2023-03-13T12:48:53;96326.20;;;11.41;73.12
58223;BME280;44020;50.890;15.796;2023-03-13T12:51:40;96330.53;;;11.50;73.14
58223;BME280;44020;50.890;15.796;2023-03-13T12:59:48;96304.59;;;11.63;72.77
58223;BME280;44020;50.890;15.796;2023-03-13T13:02:21;96290.89;;;11.64;72.66
58223;BME280;44020;50.890;15.796;2023-03-13T13:04:52;96291.69;;;11.67;73.04
58223;BME280;44020;50.890;15.796;2023-03-13T13:07:23;96291.33;;;11.71;72.82
58223;BME280;44020;50.890;15.796;2023-03-13T13:12:39;96294.40;;;11.74;72.91
58223;BME280;44020;50.890;15.796;2023-03-13T13:15:15;96289.89;;;11.77;72.92
58223;BME280;44020;50.890;15.796;2023-03-13T13:18:13;96307.63;;;11.74;72.69
58223;BME280;44020;50.890;15.796;2023-03-13T13:20:44;96312.00;;;11.67;72.80
58223;BME280;44020;50.890;15.796;2023-03-13T13:28:53;96298.01;;;11.57;72.97
58223;BME280;44020;50.890;15.796;2023-03-13T13:31:44;96290.03;;;11.53;72.93
58223;BME280;44020;50.890;15.796;2023-03-13T13:47:47;96273.09;;;11.39;73.39
58223;BME280;44020;50.890;15.796;2023-03-13T13:50:17;96267.16;;;11.39;73.68
58223;BME280;44020;50.890;15.796;2023-03-13T13:52:46;96262.61;;;11.44;73.80
58223;BME280;44020;50.890;15.796;2023-03-13T13:58:32;96256.82;;;11.51;73.87
58223;BME280;44020;50.890;15.796;2023-03-13T14:01:05;96261.55;;;11.54;73.91
58223;BME280;44020;50.890;15.796;2023-03-13T14:03:39;96270.49;;;11.55;73.90
58223;BME280;44020;50.890;15.796;2023-03-13T14:06:26;96287.19;;;11.59;74.11
58223;BME280;44020;50.890;15.796;2023-03-13T14:09:10;96287.88;;;11.61;73.94
58223;BME280;44020;50.890;15.796;2023-03-13T14:11:39;96296.95;;;11.64;74.00
58223;BME280;44020;50.890;15.796;2023-03-13T14:14:14;96296.55;;;11.67;73.77
58223;BME280;44020;50.890;15.796;2023-03-13T14:16:52;96301.86;;;11.67;73.77
58223;BME280;44020;50.890;15.796;2023-03-13T14:19:43;96298.41;;;11.68;73.77
58223;BME280;44020;50.890;15.796;2023-03-13T14:22:11;96292.87;;;11.72;73.70
58223;BME280;44020;50.890;15.796;2023-03-13T14:24:40;96290.32;;;11.76;73.68
58223;BME280;44020;50.890;15.796;2023-03-13T14:27:18;96287.88;;;11.79;73.38
58223;BME280;44020;50.890;15.796;2023-03-13T14:30:05;96296.86;;;11.80;73.05
58223;BME280;44020;50.890;15.796;2023-03-13T14:32:35;96287.48;;;11.79;73.01
58223;BME280;44020;50.890;15.796;2023-03-13T14:35:07;96288.77;;;11.81;72.84
58223;BME280;44020;50.890;15.796;2023-03-13T14:37:40;96293.10;;;11.83;72.95
58223;BME280;44020;50.890;15.796;2023-03-13T14:42:47;96293.38;;;11.92;72.66
58223;BME280;44020;50.890;15.796;2023-03-13T14:45:22;96289.02;;;11.97;72.62
58223;BME280;44020;50.890;15.796;2023-03-13T14:47:51;96286.85;;;12.02;72.58
58223;BME280;44020;50.890;15.796;2023-03-13T14:50:23;96294.66;;;12.10;72.18
58223;BME280;44020;50.890;15.796;2023-03-13T14:53:00;96293.30;;;12.13;71.88
58223;BME280;44020;50.890;15.796;2023-03-13T14:55:33;96284.81;;;12.16;71.80
58223;BME280;44020;50.890;15.796;2023-03-13T14:58:05;96285.61;;;12.20;72.15
58223;BME280;44020;50.890;15.796;2023-03-13T15:03:18;96276.02;;;12.47;71.91
58223;BME280;44020;50.890;15.796;2023-03-13T15:08:29;96268.29;;;14.73;70.52
58223;BME280;44020;50.890;15.796;2023-03-13T15:10:57;96261.94;;;15.59;69.36